sensor_id;sensor_type;location;lat;lon;timestamp;temperature;humidity
43651;DHT22;29247;50.944;5.382;2022-12-18T00:01:20;-3.10;81.80
43651;DHT22;29247;50.944;5.382;2022-12-18T00:03:47;-3.10;82.30
43651;DHT22;29247;50.944;5.382;2022-12-18T00:06:16;-3.20;81.40
43651;DHT22;29247;50.944;5.382;2022-12-18T00:08:43;-3.20;81.60
43651;DHT22;29247;50.944;5.382;2022-12-18T00:11:16;-3.30;81.50
43651;DHT22;29247;50.944;5.382;2022-12-18T00:13:45;-3.30;81.60
43651;DHT22;29247;50.944;5.382;2022-12-18T00:16:13;-3.40;81.60
43651;DHT22;29247;50.944;5.382;2022-12-18T00:18:40;-3.40;81.70
43651;DHT22;29247;50.944;5.382;2022-12-18T00:21:08;-3.40;81.70
43651;DHT22;29247;50.944;5.382;2022-12-18T00:23:37;-3.40;81.80
43651;DHT22;29247;50.944;5.382;2022-12-18T00:26:05;-3.40;81.70
43651;DHT22;29247;50.944;5.382;2022-12-18T00:28:32;-3.40;82.30
43651;DHT22;29247;50.944;5.382;2022-12-18T00:31:04;-3.40;81.50
43651;DHT22;29247;50.944;5.382;2022-12-18T00:33:30;-3.50;81.40
43651;DHT22;29247;50.944;5.382;2022-12-18T00:36:14;-3.50;81.40
43651;DHT22;29247;50.944;5.382;2022-12-18T00:38:43;-3.50;81.50
43651;DHT22;29247;50.944;5.382;2022-12-18T00:41:13;-3.40;81.60
43651;DHT22;29247;50.944;5.382;2022-12-18T00:43:59;-3.40;81.70
43651;DHT22;29247;50.944;5.382;2022-12-18T00:46:25;-3.40;81.50
43651;DHT22;29247;50.944;5.382;2022-12-18T00:48:51;-3.50;81.40
43651;DHT22;29247;50.944;5.382;2022-12-18T00:51:16;-3.50;81.30
43651;DHT22;29247;50.944;5.382;2022-12-18T00:53:42;-3.60;81.20
43651;DHT22;29247;50.944;5.382;2022-12-18T00:56:10;-3.60;81.10
43651;DHT22;29247;50.944;5.382;2022-12-18T00:58:36;-3.60;81.20
43651;DHT22;29247;50.944;5.382;2022-12-18T01:01:06;-3.70;81.20
43651;DHT22;29247;50.944;5.382;2022-12-18T01:03:32;-3.70;81.10
43651;DHT22;29247;50.944;5.382;2022-12-18T01:05:58;-3.70;81.00
43651;DHT22;29247;50.944;5.382;2022-12-18T01:08:24;-3.80;81.10
43651;DHT22;29247;50.944;5.382;2022-12-18T01:10:49;-3.80;81.10
43651;DHT22;29247;50.944;5.382;2022-12-18T01:13:15;-3.80;81.20
43651;DHT22;29247;50.944;5.382;2022-12-18T01:15:49;-3.80;81.20
43651;DHT22;29247;50.944;5.382;2022-12-18T01:18:18;-3.90;81.30
43651;DHT22;29247;50.944;5.382;2022-12-18T01:20:48;-3.80;81.30
43651;DHT22;29247;50.944;5.382;2022-12-18T01:23:14;-3.80;81.40
43651;DHT22;29247;50.944;5.382;2022-12-18T01:25:40;-3.80;81.30
43651;DHT22;29247;50.944;5.382;2022-12-18T01:28:07;-3.80;81.20
43651;DHT22;29247;50.944;5.382;2022-12-18T01:30:33;-3.90;81.00
43651;DHT22;29247;50.944;5.382;2022-12-18T01:32:59;-3.90;81.20
43651;DHT22;29247;50.944;5.382;2022-12-18T01:35:25;-3.90;81.90
43651;DHT22;29247;50.944;5.382;2022-12-18T01:37:54;-3.90;81.30
43651;DHT22;29247;50.944;5.382;2022-12-18T01:40:20;-3.90;81.30
43651;DHT22;29247;50.944;5.382;2022-12-18T01:42:54;-3.90;81.30
43651;DHT22;29247;50.944;5.382;2022-12-18T01:45:27;-3.90;81.40
43651;DHT22;29247;50.944;5.382;2022-12-18T01:47:59;-3.90;81.50
43651;DHT22;29247;50.944;5.382;2022-12-18T01:50:40;-3.90;81.40
43651;DHT22;29247;50.944;5.382;2022-12-18T01:53:14;-3.90;81.30
43651;DHT22;29247;50.944;5.382;2022-12-18T01:55:48;-3.90;81.20
43651;DHT22;29247;50.944;5.382;2022-12-18T01:58:17;-4.00;81.10
43651;DHT22;29247;50.944;5.382;2022-12-18T02:00:44;-4.00;81.10
43651;DHT22;29247;50.944;5.382;2022-12-18T02:03:09;-4.00;81.00
43651;DHT22;29247;50.944;5.382;2022-12-18T02:05:51;-4.00;81.20
43651;DHT22;29247;50.944;5.382;2022-12-18T02:08:36;-4.00;81.20
43651;DHT22;29247;50.944;5.382;2022-12-18T02:11:10;-4.10;81.10
43651;DHT22;29247;50.944;5.382;2022-12-18T02:18:50;-4.00;81.20
43651;DHT22;29247;50.944;5.382;2022-12-18T02:24:39;-4.10;81.10
43651;DHT22;29247;50.944;5.382;2022-12-18T02:27:11;-4.10;81.10
43651;DHT22;29247;50.944;5.382;2022-12-18T02:29:46;-4.10;80.90
43651;DHT22;29247;50.944;5.382;2022-12-18T02:32:20;-4.20;80.70
43651;DHT22;29247;50.944;5.382;2022-12-18T02:34:48;-4.20;80.90
43651;DHT22;29247;50.944;5.382;2022-12-18T02:37:20;-4.20;80.90
43651;DHT22;29247;50.944;5.382;2022-12-18T02:39:48;-4.30;80.90
43651;DHT22;29247;50.944;5.382;2022-12-18T02:42:14;-4.30;80.80
43651;DHT22;29247;50.944;5.382;2022-12-18T02:44:47;-4.30;80.70
43651;DHT22;29247;50.944;5.382;2022-12-18T02:47:19;-4.30;80.70
43651;DHT22;29247;50.944;5.382;2022-12-18T02:55:53;-4.30;80.60
43651;DHT22;29247;50.944;5.382;2022-12-18T02:58:30;-4.30;80.60
43651;DHT22;29247;50.944;5.382;2022-12-18T03:03:41;-4.30;80.60
43651;DHT22;29247;50.944;5.382;2022-12-18T03:06:41;-4.40;80.50
43651;DHT22;29247;50.944;5.382;2022-12-18T03:09:17;-4.50;80.40
43651;DHT22;29247;50.944;5.382;2022-12-18T03:11:50;-4.50;80.30
43651;DHT22;29247;50.944;5.382;2022-12-18T03:14:38;-4.50;80.50
43651;DHT22;29247;50.944;5.382;2022-12-18T03:17:10;-4.40;80.60
43651;DHT22;29247;50.944;5.382;2022-12-18T03:19:39;-4.40;80.70
43651;DHT22;29247;50.944;5.382;2022-12-18T03:22:07;-4.40;80.70
43651;DHT22;29247;50.944;5.382;2022-12-18T03:24:34;-4.40;80.60
43651;DHT22;29247;50.944;5.382;2022-12-18T03:27:10;-4.40;80.40
43651;DHT22;29247;50.944;5.382;2022-12-18T03:29:50;-4.50;80.30
43651;DHT22;29247;50.944;5.382;2022-12-18T03:32:25;-4.50;80.30
43651;DHT22;29247;50.944;5.382;2022-12-18T03:34:53;-4.50;80.30
43651;DHT22;29247;50.944;5.382;2022-12-18T03:37:22;-4.50;80.30
43651;DHT22;29247;50.944;5.382;2022-12-18T03:39:48;-4.50;80.50
43651;DHT22;29247;50.944;5.382;2022-12-18T03:42:32;-4.50;80.50
43651;DHT22;29247;50.944;5.382;2022-12-18T03:45:20;-4.50;80.40
43651;DHT22;29247;50.944;5.382;2022-12-18T03:48:08;-4.50;80.40
43651;DHT22;29247;50.944;5.382;2022-12-18T03:50:58;-4.50;80.60
43651;DHT22;29247;50.944;5.382;2022-12-18T03:56:02;-4.40;80.50
43651;DHT22;29247;50.944;5.382;2022-12-18T03:58:30;-4.50;80.30
43651;DHT22;29247;50.944;5.382;2022-12-18T04:01:00;-4.50;80.50
43651;DHT22;29247;50.944;5.382;2022-12-18T04:03:29;-4.50;80.50
43651;DHT22;29247;50.944;5.382;2022-12-18T04:05:57;-4.40;80.60
43651;DHT22;29247;50.944;5.382;2022-12-18T04:08:26;-4.40;80.50
43651;DHT22;29247;50.944;5.382;2022-12-18T04:10:55;-4.50;80.30
43651;DHT22;29247;50.944;5.382;2022-12-18T04:13:29;-4.50;80.30
43651;DHT22;29247;50.944;5.382;2022-12-18T04:15:55;-4.50;80.30
43651;DHT22;29247;50.944;5.382;2022-12-18T04:18:23;-4.50;80.30
43651;DHT22;29247;50.944;5.382;2022-12-18T04:20:48;-4.50;80.30
43651;DHT22;29247;50.944;5.382;2022-12-18T04:23:14;-4.50;80.20
43651;DHT22;29247;50.944;5.382;2022-12-18T04:25:42;-4.50;80.10
43651;DHT22;29247;50.944;5.382;2022-12-18T04:28:09;-4.60;80.00
43651;DHT22;29247;50.944;5.382;2022-12-18T04:30:34;-4.60;80.00
43651;DHT22;29247;50.944;5.382;2022-12-18T04:33:00;-4.60;80.20
43651;DHT22;29247;50.944;5.382;2022-12-18T04:35:30;-4.60;80.20
43651;DHT22;29247;50.944;5.382;2022-12-18T04:37:56;-4.60;80.10
43651;DHT22;29247;50.944;5.382;2022-12-18T04:40:24;-4.60;80.20
43651;DHT22;29247;50.944;5.382;2022-12-18T04:42:49;-4.60;80.40
43651;DHT22;29247;50.944;5.382;2022-12-18T04:45:15;-4.60;80.40
43651;DHT22;29247;50.944;5.382;2022-12-18T04:47:42;-4.60;80.40
43651;DHT22;29247;50.944;5.382;2022-12-18T04:50:09;-4.60;80.30
43651;DHT22;29247;50.944;5.382;2022-12-18T04:52:35;-4.60;80.10
43651;DHT22;29247;50.944;5.382;2022-12-18T04:55:01;-4.70;79.90
43651;DHT22;29247;50.944;5.382;2022-12-18T04:57:29;-4.70;79.90
43651;DHT22;29247;50.944;5.382;2022-12-18T04:59:57;-4.70;79.80
43651;DHT22;29247;50.944;5.382;2022-12-18T05:02:26;-4.80;79.80
43651;DHT22;29247;50.944;5.382;2022-12-18T05:04:51;-4.80;79.90
43651;DHT22;29247;50.944;5.382;2022-12-18T05:07:22;-4.80;79.90
43651;DHT22;29247;50.944;5.382;2022-12-18T05:09:50;-4.80;80.00
43651;DHT22;29247;50.944;5.382;2022-12-18T05:12:18;-4.70;80.20
43651;DHT22;29247;50.944;5.382;2022-12-18T05:14:44;-4.70;80.30
43651;DHT22;29247;50.944;5.382;2022-12-18T05:17:12;-4.70;80.30
43651;DHT22;29247;50.944;5.382;2022-12-18T05:19:41;-4.70;80.30
43651;DHT22;29247;50.944;5.382;2022-12-18T05:22:08;-4.70;80.30
43651;DHT22;29247;50.944;5.382;2022-12-18T05:24:34;-4.70;80.30
43651;DHT22;29247;50.944;5.382;2022-12-18T05:26:59;-4.70;80.40
43651;DHT22;29247;50.944;5.382;2022-12-18T05:29:25;-4.70;80.40
43651;DHT22;29247;50.944;5.382;2022-12-18T05:31:56;-4.70;80.50
43651;DHT22;29247;50.944;5.382;2022-12-18T05:34:22;-4.70;80.40
43651;DHT22;29247;50.944;5.382;2022-12-18T05:36:48;-4.70;80.40
43651;DHT22;29247;50.944;5.382;2022-12-18T05:39:13;-4.70;80.40
43651;DHT22;29247;50.944;5.382;2022-12-18T05:41:40;-4.70;80.50
43651;DHT22;29247;50.944;5.382;2022-12-18T05:44:05;-4.70;80.50
43651;DHT22;29247;50.944;5.382;2022-12-18T05:46:31;-4.70;80.40
43651;DHT22;29247;50.944;5.382;2022-12-18T05:48:59;-4.70;80.50
43651;DHT22;29247;50.944;5.382;2022-12-18T05:51:26;-4.70;80.40
43651;DHT22;29247;50.944;5.382;2022-12-18T05:53:55;-4.70;80.30
43651;DHT22;29247;50.944;5.382;2022-12-18T05:56:22;-4.70;80.40
43651;DHT22;29247;50.944;5.382;2022-12-18T05:58:53;-4.70;80.30
43651;DHT22;29247;50.944;5.382;2022-12-18T06:01:26;-4.70;80.40
43651;DHT22;29247;50.944;5.382;2022-12-18T06:03:55;-4.70;80.40
43651;DHT22;29247;50.944;5.382;2022-12-18T06:06:26;-4.70;80.40
43651;DHT22;29247;50.944;5.382;2022-12-18T06:08:56;-4.70;80.60
43651;DHT22;29247;50.944;5.382;2022-12-18T06:11:23;-4.70;80.60
43651;DHT22;29247;50.944;5.382;2022-12-18T06:13:51;-4.80;80.60
43651;DHT22;29247;50.944;5.382;2022-12-18T06:16:20;-4.80;80.60
43651;DHT22;29247;50.944;5.382;2022-12-18T06:18:46;-4.80;80.60
43651;DHT22;29247;50.944;5.382;2022-12-18T06:21:12;-4.80;80.60
43651;DHT22;29247;50.944;5.382;2022-12-18T06:23:38;-4.80;80.70
43651;DHT22;29247;50.944;5.382;2022-12-18T06:26:13;-4.80;80.80
43651;DHT22;29247;50.944;5.382;2022-12-18T06:28:39;-4.80;80.80
43651;DHT22;29247;50.944;5.382;2022-12-18T06:31:06;-4.80;80.70
43651;DHT22;29247;50.944;5.382;2022-12-18T06:33:32;-4.80;80.60
43651;DHT22;29247;50.944;5.382;2022-12-18T06:36:06;-4.80;80.60
43651;DHT22;29247;50.944;5.382;2022-12-18T06:38:33;-4.90;80.50
43651;DHT22;29247;50.944;5.382;2022-12-18T06:40:59;-4.90;80.50
43651;DHT22;29247;50.944;5.382;2022-12-18T06:43:27;-4.90;80.50
43651;DHT22;29247;50.944;5.382;2022-12-18T06:46:01;-4.90;80.50
43651;DHT22;29247;50.944;5.382;2022-12-18T06:48:27;-4.90;80.60
43651;DHT22;29247;50.944;5.382;2022-12-18T06:50:55;-4.90;80.60
43651;DHT22;29247;50.944;5.382;2022-12-18T06:53:23;-4.90;80.50
43651;DHT22;29247;50.944;5.382;2022-12-18T06:55:51;-4.90;80.40
43651;DHT22;29247;50.944;5.382;2022-12-18T06:58:17;-4.90;80.50
43651;DHT22;29247;50.944;5.382;2022-12-18T07:00:47;-4.80;80.60
43651;DHT22;29247;50.944;5.382;2022-12-18T07:03:13;-4.90;81.20
43651;DHT22;29247;50.944;5.382;2022-12-18T07:05:42;-4.90;80.60
43651;DHT22;29247;50.944;5.382;2022-12-18T07:08:07;-4.90;80.60
43651;DHT22;29247;50.944;5.382;2022-12-18T07:10:33;-4.90;80.60
43651;DHT22;29247;50.944;5.382;2022-12-18T07:13:01;-4.90;80.70
43651;DHT22;29247;50.944;5.382;2022-12-18T07:15:26;-4.90;80.70
43651;DHT22;29247;50.944;5.382;2022-12-18T07:17:52;-4.90;80.60
43651;DHT22;29247;50.944;5.382;2022-12-18T07:20:18;-4.90;80.60
43651;DHT22;29247;50.944;5.382;2022-12-18T07:22:50;-4.90;81.40
43651;DHT22;29247;50.944;5.382;2022-12-18T07:25:16;-4.90;80.70
43651;DHT22;29247;50.944;5.382;2022-12-18T07:27:41;-4.90;80.70
43651;DHT22;29247;50.944;5.382;2022-12-18T07:30:08;-4.90;80.70
43651;DHT22;29247;50.944;5.382;2022-12-18T07:32:36;-4.90;80.70
43651;DHT22;29247;50.944;5.382;2022-12-18T07:35:02;-4.80;80.80
43651;DHT22;29247;50.944;5.382;2022-12-18T07:37:31;-4.80;80.90
43651;DHT22;29247;50.944;5.382;2022-12-18T07:39:56;-4.80;80.90
43651;DHT22;29247;50.944;5.382;2022-12-18T07:42:24;-4.80;80.90
43651;DHT22;29247;50.944;5.382;2022-12-18T07:44:56;-4.80;80.90
43651;DHT22;29247;50.944;5.382;2022-12-18T07:47:24;-4.80;81.00
43651;DHT22;29247;50.944;5.382;2022-12-18T07:49:58;-4.70;81.10
43651;DHT22;29247;50.944;5.382;2022-12-18T07:52:24;-4.80;81.10
43651;DHT22;29247;50.944;5.382;2022-12-18T07:54:49;-4.70;81.20
43651;DHT22;29247;50.944;5.382;2022-12-18T07:57:18;-4.70;81.30
43651;DHT22;29247;50.944;5.382;2022-12-18T07:59:43;-4.70;81.30
43651;DHT22;29247;50.944;5.382;2022-12-18T08:02:11;-4.70;81.40
43651;DHT22;29247;50.944;5.382;2022-12-18T08:04:37;-4.70;81.40
43651;DHT22;29247;50.944;5.382;2022-12-18T08:07:05;-4.60;81.50
43651;DHT22;29247;50.944;5.382;2022-12-18T08:09:31;-4.60;81.60
43651;DHT22;29247;50.944;5.382;2022-12-18T08:11:57;-4.60;81.60
43651;DHT22;29247;50.944;5.382;2022-12-18T08:14:25;-4.50;81.70
43651;DHT22;29247;50.944;5.382;2022-12-18T08:16:51;-4.60;81.70
43651;DHT22;29247;50.944;5.382;2022-12-18T08:19:17;-4.50;81.70
43651;DHT22;29247;50.944;5.382;2022-12-18T08:21:45;-4.50;81.70
43651;DHT22;29247;50.944;5.382;2022-12-18T08:24:11;-4.50;81.80
43651;DHT22;29247;50.944;5.382;2022-12-18T08:26:39;-4.50;81.90
43651;DHT22;29247;50.944;5.382;2022-12-18T08:29:05;-4.40;82.00
43651;DHT22;29247;50.944;5.382;2022-12-18T08:31:34;-4.40;82.10
43651;DHT22;29247;50.944;5.382;2022-12-18T08:34:00;-4.40;82.20
43651;DHT22;29247;50.944;5.382;2022-12-18T08:36:25;-4.30;82.30
43651;DHT22;29247;50.944;5.382;2022-12-18T08:38:54;-4.30;82.40
43651;DHT22;29247;50.944;5.382;2022-12-18T08:41:21;-4.20;82.40
43651;DHT22;29247;50.944;5.382;2022-12-18T08:43:49;-4.20;82.50
43651;DHT22;29247;50.944;5.382;2022-12-18T08:46:41;-4.20;82.50
43651;DHT22;29247;50.944;5.382;2022-12-18T08:49:11;-4.10;82.70
43651;DHT22;29247;50.944;5.382;2022-12-18T08:51:38;-4.00;82.90
43651;DHT22;29247;50.944;5.382;2022-12-18T08:54:04;-4.00;83.10
43651;DHT22;29247;50.944;5.382;2022-12-18T08:56:31;-3.90;83.30
43651;DHT22;29247;50.944;5.382;2022-12-18T08:59:01;-3.80;83.40
43651;DHT22;29247;50.944;5.382;2022-12-18T09:01:27;-3.80;83.40
43651;DHT22;29247;50.944;5.382;2022-12-18T09:03:56;-3.70;83.60
43651;DHT22;29247;50.944;5.382;2022-12-18T09:06:26;-3.60;83.60
43651;DHT22;29247;50.944;5.382;2022-12-18T09:08:52;-3.50;84.50
43651;DHT22;29247;50.944;5.382;2022-12-18T09:11:23;-3.50;83.80
43651;DHT22;29247;50.944;5.382;2022-12-18T09:13:50;-3.40;83.90
43651;DHT22;29247;50.944;5.382;2022-12-18T09:16:16;-3.30;84.00
43651;DHT22;29247;50.944;5.382;2022-12-18T09:18:42;-3.20;84.10
43651;DHT22;29247;50.944;5.382;2022-12-18T09:21:18;-3.20;84.10
43651;DHT22;29247;50.944;5.382;2022-12-18T09:23:52;-3.10;84.20
43651;DHT22;29247;50.944;5.382;2022-12-18T09:26:22;-3.00;84.30
43651;DHT22;29247;50.944;5.382;2022-12-18T09:28:49;-3.00;84.30
43651;DHT22;29247;50.944;5.382;2022-12-18T09:31:21;-2.90;84.40
43651;DHT22;29247;50.944;5.382;2022-12-18T09:33:51;-2.80;84.50
43651;DHT22;29247;50.944;5.382;2022-12-18T09:36:17;-2.70;84.60
43651;DHT22;29247;50.944;5.382;2022-12-18T09:38:46;-2.60;84.60
43651;DHT22;29247;50.944;5.382;2022-12-18T09:49:47;-2.40;84.70
43651;DHT22;29247;50.944;5.382;2022-12-18T09:52:19;-2.30;84.80
43651;DHT22;29247;50.944;5.382;2022-12-18T09:54:53;-2.20;84.90
43651;DHT22;29247;50.944;5.382;2022-12-18T09:57:23;-2.20;85.00
43651;DHT22;29247;50.944;5.382;2022-12-18T09:59:51;-2.10;85.10
43651;DHT22;29247;50.944;5.382;2022-12-18T10:02:24;-2.00;85.10
43651;DHT22;29247;50.944;5.382;2022-12-18T10:05:14;-2.00;85.00
43651;DHT22;29247;50.944;5.382;2022-12-18T10:07:53;-1.90;85.30
43651;DHT22;29247;50.944;5.382;2022-12-18T10:10:30;-1.90;85.30
43651;DHT22;29247;50.944;5.382;2022-12-18T10:21:10;-1.60;85.70
43651;DHT22;29247;50.944;5.382;2022-12-18T10:26:32;-1.40;85.80
43651;DHT22;29247;50.944;5.382;2022-12-18T10:29:00;-1.30;85.90
43651;DHT22;29247;50.944;5.382;2022-12-18T10:31:26;-1.30;85.90
43651;DHT22;29247;50.944;5.382;2022-12-18T10:33:55;-1.20;86.00
43651;DHT22;29247;50.944;5.382;2022-12-18T10:36:23;-1.10;86.10
43651;DHT22;29247;50.944;5.382;2022-12-18T10:38:50;-1.10;86.70
43651;DHT22;29247;50.944;5.382;2022-12-18T10:43:44;-0.90;85.90
43651;DHT22;29247;50.944;5.382;2022-12-18T10:48:47;-0.80;85.90
43651;DHT22;29247;50.944;5.382;2022-12-18T10:54:01;-0.70;86.00
43651;DHT22;29247;50.944;5.382;2022-12-18T10:56:33;-0.60;85.90
43651;DHT22;29247;50.944;5.382;2022-12-18T10:59:11;-0.50;86.00
43651;DHT22;29247;50.944;5.382;2022-12-18T11:01:55;-0.50;85.90
43651;DHT22;29247;50.944;5.382;2022-12-18T11:04:24;-0.40;85.90
43651;DHT22;29247;50.944;5.382;2022-12-18T11:07:04;-0.40;85.90
43651;DHT22;29247;50.944;5.382;2022-12-18T11:09:35;-0.40;85.90
43651;DHT22;29247;50.944;5.382;2022-12-18T11:12:14;-0.30;85.90
43651;DHT22;29247;50.944;5.382;2022-12-18T11:14:46;-0.30;85.80
43651;DHT22;29247;50.944;5.382;2022-12-18T11:20:04;-0.20;85.80
43651;DHT22;29247;50.944;5.382;2022-12-18T11:22:34;-0.10;85.90
43651;DHT22;29247;50.944;5.382;2022-12-18T11:25:04;-0.10;85.80
43651;DHT22;29247;50.944;5.382;2022-12-18T11:27:31;0.00;85.90
43651;DHT22;29247;50.944;5.382;2022-12-18T11:30:34;0.00;86.10
43651;DHT22;29247;50.944;5.382;2022-12-18T11:33:28;0.00;86.20
43651;DHT22;29247;50.944;5.382;2022-12-18T11:35:56;0.10;86.10
43651;DHT22;29247;50.944;5.382;2022-12-18T11:38:38;0.20;86.20
43651;DHT22;29247;50.944;5.382;2022-12-18T11:43:51;0.20;86.20
43651;DHT22;29247;50.944;5.382;2022-12-18T11:46:32;0.30;86.20
43651;DHT22;29247;50.944;5.382;2022-12-18T11:49:32;0.30;86.20
43651;DHT22;29247;50.944;5.382;2022-12-18T11:52:01;0.40;86.40
43651;DHT22;29247;50.944;5.382;2022-12-18T11:54:28;0.50;86.40
43651;DHT22;29247;50.944;5.382;2022-12-18T11:59:54;0.60;86.30
43651;DHT22;29247;50.944;5.382;2022-12-18T12:11:02;0.80;86.10
43651;DHT22;29247;50.944;5.382;2022-12-18T12:14:01;0.80;85.90
43651;DHT22;29247;50.944;5.382;2022-12-18T12:16:41;0.80;86.00
43651;DHT22;29247;50.944;5.382;2022-12-18T12:20:15;0.80;85.90
43651;DHT22;29247;50.944;5.382;2022-12-18T12:26:12;0.90;85.90
43651;DHT22;29247;50.944;5.382;2022-12-18T12:33:52;1.00;85.60
43651;DHT22;29247;50.944;5.382;2022-12-18T12:39:22;1.00;85.60
43651;DHT22;29247;50.944;5.382;2022-12-18T12:41:52;1.10;85.60
43651;DHT22;29247;50.944;5.382;2022-12-18T12:44:50;1.10;85.60
43651;DHT22;29247;50.944;5.382;2022-12-18T12:47:27;1.10;85.50
43651;DHT22;29247;50.944;5.382;2022-12-18T12:49:57;1.10;85.30
43651;DHT22;29247;50.944;5.382;2022-12-18T12:52:38;1.20;85.30
43651;DHT22;29247;50.944;5.382;2022-12-18T12:55:25;1.20;85.40
43651;DHT22;29247;50.944;5.382;2022-12-18T12:58:21;1.20;85.20
43651;DHT22;29247;50.944;5.382;2022-12-18T13:01:09;1.20;85.20
43651;DHT22;29247;50.944;5.382;2022-12-18T13:09:12;1.30;85.00
43651;DHT22;29247;50.944;5.382;2022-12-18T13:11:44;1.40;85.10
43651;DHT22;29247;50.944;5.382;2022-12-18T13:14:40;1.40;85.10
43651;DHT22;29247;50.944;5.382;2022-12-18T13:19:52;1.40;85.20
43651;DHT22;29247;50.944;5.382;2022-12-18T13:22:36;1.40;85.10
43651;DHT22;29247;50.944;5.382;2022-12-18T13:25:20;1.50;85.10
43651;DHT22;29247;50.944;5.382;2022-12-18T13:28:02;1.50;85.00
43651;DHT22;29247;50.944;5.382;2022-12-18T13:35:50;1.50;85.00
43651;DHT22;29247;50.944;5.382;2022-12-18T13:38:38;1.50;84.80
43651;DHT22;29247;50.944;5.382;2022-12-18T13:43:49;1.60;84.80
43651;DHT22;29247;50.944;5.382;2022-12-18T13:51:23;1.60;84.80
43651;DHT22;29247;50.944;5.382;2022-12-18T13:53:54;1.60;84.80
43651;DHT22;29247;50.944;5.382;2022-12-18T13:56:33;1.60;84.80
43651;DHT22;29247;50.944;5.382;2022-12-18T13:59:23;1.60;84.80
43651;DHT22;29247;50.944;5.382;2022-12-18T14:01:56;1.60;84.80
43651;DHT22;29247;50.944;5.382;2022-12-18T14:04:32;1.60;84.70
43651;DHT22;29247;50.944;5.382;2022-12-18T14:07:17;1.60;84.70
43651;DHT22;29247;50.944;5.382;2022-12-18T14:09:46;1.70;84.70
43651;DHT22;29247;50.944;5.382;2022-12-18T14:12:30;1.70;84.70
43651;DHT22;29247;50.944;5.382;2022-12-18T14:20:24;1.60;84.40
43651;DHT22;29247;50.944;5.382;2022-12-18T14:22:53;1.60;84.60
43651;DHT22;29247;50.944;5.382;2022-12-18T14:25:25;1.60;84.70
43651;DHT22;29247;50.944;5.382;2022-12-18T14:28:12;1.60;85.30
43651;DHT22;29247;50.944;5.382;2022-12-18T14:30:41;1.60;84.80
43651;DHT22;29247;50.944;5.382;2022-12-18T14:33:11;1.60;84.70
43651;DHT22;29247;50.944;5.382;2022-12-18T14:35:42;1.60;84.80
43651;DHT22;29247;50.944;5.382;2022-12-18T14:38:27;1.60;84.80
43651;DHT22;29247;50.944;5.382;2022-12-18T14:41:13;1.60;84.80
43651;DHT22;29247;50.944;5.382;2022-12-18T14:43:44;1.60;84.80
43651;DHT22;29247;50.944;5.382;2022-12-18T14:49:17;1.60;84.90
43651;DHT22;29247;50.944;5.382;2022-12-18T14:52:01;1.60;84.80
43651;DHT22;29247;50.944;5.382;2022-12-18T14:54:28;1.60;84.90
43651;DHT22;29247;50.944;5.382;2022-12-18T14:57:13;1.60;84.80
43651;DHT22;29247;50.944;5.382;2022-12-18T14:59:41;1.60;84.90
43651;DHT22;29247;50.944;5.382;2022-12-18T15:02:23;1.60;84.80
43651;DHT22;29247;50.944;5.382;2022-12-18T15:05:01;1.50;84.70
43651;DHT22;29247;50.944;5.382;2022-12-18T15:07:43;1.50;84.70
43651;DHT22;29247;50.944;5.382;2022-12-18T15:12:44;1.50;84.70
43651;DHT22;29247;50.944;5.382;2022-12-18T15:20:31;1.40;84.70
43651;DHT22;29247;50.944;5.382;2022-12-18T15:23:03;1.40;84.90
43651;DHT22;29247;50.944;5.382;2022-12-18T15:25:34;1.40;84.90
43651;DHT22;29247;50.944;5.382;2022-12-18T15:28:13;1.40;84.90
43651;DHT22;29247;50.944;5.382;2022-12-18T15:31:39;1.40;84.90
43651;DHT22;29247;50.944;5.382;2022-12-18T15:36:20;1.30;84.80
43651;DHT22;29247;50.944;5.382;2022-12-18T15:38:49;1.30;84.90
43651;DHT22;29247;50.944;5.382;2022-12-18T15:41:18;1.30;84.90
43651;DHT22;29247;50.944;5.382;2022-12-18T15:43:46;1.30;85.00
43651;DHT22;29247;50.944;5.382;2022-12-18T15:46:17;1.20;84.90
43651;DHT22;29247;50.944;5.382;2022-12-18T15:48:54;1.30;85.00
43651;DHT22;29247;50.944;5.382;2022-12-18T15:53:56;1.20;85.20
43651;DHT22;29247;50.944;5.382;2022-12-18T15:56:25;1.20;85.20
43651;DHT22;29247;50.944;5.382;2022-12-18T15:59:13;1.20;85.30
43651;DHT22;29247;50.944;5.382;2022-12-18T16:01:44;1.20;85.30
43651;DHT22;29247;50.944;5.382;2022-12-18T16:04:14;1.20;85.40
43651;DHT22;29247;50.944;5.382;2022-12-18T16:06:40;1.20;85.50
43651;DHT22;29247;50.944;5.382;2022-12-18T16:09:07;1.20;85.50
43651;DHT22;29247;50.944;5.382;2022-12-18T16:11:37;1.20;85.60
43651;DHT22;29247;50.944;5.382;2022-12-18T16:14:21;1.20;85.60
43651;DHT22;29247;50.944;5.382;2022-12-18T16:16:53;1.20;85.70
43651;DHT22;29247;50.944;5.382;2022-12-18T16:19:21;1.20;85.70
43651;DHT22;29247;50.944;5.382;2022-12-18T16:21:49;1.20;85.70
43651;DHT22;29247;50.944;5.382;2022-12-18T16:24:18;1.20;85.70
43651;DHT22;29247;50.944;5.382;2022-12-18T16:26:46;1.20;85.80
43651;DHT22;29247;50.944;5.382;2022-12-18T16:29:14;1.20;85.80
43651;DHT22;29247;50.944;5.382;2022-12-18T16:31:43;1.20;85.80
43651;DHT22;29247;50.944;5.382;2022-12-18T16:34:20;1.20;86.60
43651;DHT22;29247;50.944;5.382;2022-12-18T16:36:51;1.20;86.00
43651;DHT22;29247;50.944;5.382;2022-12-18T16:39:19;1.30;86.00
43651;DHT22;29247;50.944;5.382;2022-12-18T16:41:44;1.30;86.00
43651;DHT22;29247;50.944;5.382;2022-12-18T16:44:10;1.30;86.10
43651;DHT22;29247;50.944;5.382;2022-12-18T16:46:37;1.30;86.10
43651;DHT22;29247;50.944;5.382;2022-12-18T16:49:07;1.30;86.10
43651;DHT22;29247;50.944;5.382;2022-12-18T16:51:36;1.30;86.10
43651;DHT22;29247;50.944;5.382;2022-12-18T16:54:02;1.30;86.20
43651;DHT22;29247;50.944;5.382;2022-12-18T16:56:29;1.30;86.20
43651;DHT22;29247;50.944;5.382;2022-12-18T16:58:59;1.30;86.20
43651;DHT22;29247;50.944;5.382;2022-12-18T17:01:28;1.30;86.20
43651;DHT22;29247;50.944;5.382;2022-12-18T17:04:03;1.40;86.30
43651;DHT22;29247;50.944;5.382;2022-12-18T17:06:32;1.30;86.20
43651;DHT22;29247;50.944;5.382;2022-12-18T17:09:00;1.30;86.20
43651;DHT22;29247;50.944;5.382;2022-12-18T17:11:28;1.40;86.40
43651;DHT22;29247;50.944;5.382;2022-12-18T17:13:54;1.40;86.40
43651;DHT22;29247;50.944;5.382;2022-12-18T17:16:23;1.40;86.40
43651;DHT22;29247;50.944;5.382;2022-12-18T17:18:54;1.40;86.40
43651;DHT22;29247;50.944;5.382;2022-12-18T17:21:20;1.40;86.40
43651;DHT22;29247;50.944;5.382;2022-12-18T17:23:45;1.40;86.40
43651;DHT22;29247;50.944;5.382;2022-12-18T17:26:14;1.40;86.40
43651;DHT22;29247;50.944;5.382;2022-12-18T17:28:44;1.40;86.40
43651;DHT22;29247;50.944;5.382;2022-12-18T17:31:16;1.50;86.50
43651;DHT22;29247;50.944;5.382;2022-12-18T17:33:42;1.50;86.50
43651;DHT22;29247;50.944;5.382;2022-12-18T17:36:09;1.50;86.40
43651;DHT22;29247;50.944;5.382;2022-12-18T17:38:37;1.50;86.40
43651;DHT22;29247;50.944;5.382;2022-12-18T17:41:06;1.50;86.40
43651;DHT22;29247;50.944;5.382;2022-12-18T17:43:35;1.50;86.40
43651;DHT22;29247;50.944;5.382;2022-12-18T17:46:10;1.50;86.40
43651;DHT22;29247;50.944;5.382;2022-12-18T17:48:38;1.60;86.40
43651;DHT22;29247;50.944;5.382;2022-12-18T17:51:06;1.60;86.40
43651;DHT22;29247;50.944;5.382;2022-12-18T17:53:32;1.60;86.40
43651;DHT22;29247;50.944;5.382;2022-12-18T17:56:01;1.60;86.40
43651;DHT22;29247;50.944;5.382;2022-12-18T17:58:30;1.60;86.30